Time;durP1;ratioP1;P1;durP2;ratioP2;P2;SDS_P1;SDS_P2;PMS_P1;PMS_P2;Temp;Humidity;BMP_temperature;BMP_pressure;BME280_temperature;BME280_humidity;BME280_pressure;Samples;Min_cycle;Max_cycle;Signal;HPM_P1;HPM_P2
2022/07/28 00:02:15;;;;;;;4.70;2.13;;;13.00;99.90;;;;;;5051531;28;20412;-71
2022/07/28 00:04:40;;;;;;;3.42;2.13;;;13.00;99.90;;;;;;5050186;28;20856;-71
2022/07/28 00:07:06;;;;;;;4.55;2.20;;;13.00;99.90;;;;;;5050174;28;20493;-72
2022/07/28 00:09:32;;;;;;;2.65;2.17;;;13.00;99.90;;;;;;5050130;28;20055;-71
2022/07/28 00:11:57;;;;;;;4.18;1.98;;;13.00;99.90;;;;;;5050191;28;20497;-72
2022/07/28 00:14:23;;;;;;;3.53;1.83;;;13.00;99.90;;;;;;5050117;28;20127;-72
2022/07/28 00:16:49;;;;;;;3.53;2.03;;;13.00;99.90;;;;;;5051504;28;20095;-72
2022/07/28 00:19:15;;;;;;;4.00;2.13;;;13.00;99.90;;;;;;5033493;28;20413;-72
2022/07/28 00:21:40;;;;;;;3.85;2.20;;;13.00;99.90;;;;;;5049986;28;20067;-72
2022/07/28 00:24:06;;;;;;;2.95;2.17;;;12.90;99.90;;;;;;5050432;28;20049;-72
2022/07/28 00:26:32;;;;;;;4.07;2.25;;;12.90;99.90;;;;;;5052277;28;20041;-72
2022/07/28 00:28:57;;;;;;;4.70;2.10;;;12.90;99.90;;;;;;5054103;28;20045;-72
2022/07/28 00:31:23;;;;;;;3.28;1.83;;;12.90;99.90;;;;;;5035652;28;20039;-72
2022/07/28 00:33:48;;;;;;;7.93;2.22;;;13.00;99.90;;;;;;5049385;28;20104;-72
2022/07/28 00:36:14;;;;;;;4.75;1.92;;;12.90;99.90;;;;;;5033304;28;20438;-72
2022/07/28 00:38:40;;;;;;;6.68;1.90;;;13.00;99.90;;;;;;5049824;28;20108;-72
2022/07/28 00:41:11;;;;;;;5.68;2.30;;;13.00;99.90;;;;;;5033123;28;20121;-72
2022/07/28 00:43:37;;;;;;;5.43;2.30;;;12.90;99.90;;;;;;5049760;28;20083;-72
2022/07/28 00:46:03;;;;;;;4.50;2.00;;;12.90;99.90;;;;;;5054995;28;20073;-72
2022/07/28 00:48:29;;;;;;;2.35;2.00;;;12.80;99.90;;;;;;5053451;28;20036;-72
2022/07/28 00:50:55;;;;;;;3.03;1.80;;;12.90;99.90;;;;;;5032831;28;20064;-72
2022/07/28 00:53:22;;;;;;;2.22;2.03;;;12.90;99.90;;;;;;5049450;28;20060;-72
2022/07/28 00:55:47;;;;;;;5.13;2.10;;;12.80;99.90;;;;;;5049442;28;20084;-72
2022/07/28 00:58:13;;;;;;;6.43;2.47;;;12.70;99.90;;;;;;5049605;28;20072;-72
2022/07/28 01:00:39;;;;;;;6.65;2.15;;;12.60;99.90;;;;;;5049415;28;20051;-72
2022/07/28 01:03:05;;;;;;;3.28;2.38;;;12.40;99.90;;;;;;5049057;28;20044;-72
2022/07/28 01:05:51;;;;;;;4.20;2.03;;;12.50;99.90;;;;;;5049319;28;20045;-72
2022/07/28 01:08:28;;;;;;;4.88;2.05;;;12.50;99.90;;;;;;5033000;28;20048;-72
2022/07/28 01:11:14;;;;;;;5.68;2.42;;;12.60;99.90;;;;;;5049581;28;20439;-72
2022/07/28 01:14:09;;;;;;;3.42;2.10;;;12.60;99.90;;;;;;5048974;28;20078;-72
2022/07/28 01:16:46;;;;;;;4.47;2.30;;;12.60;99.90;;;;;;5049057;28;20119;-72
2022/07/28 01:19:39;;;;;;;4.28;2.75;;;12.50;99.90;;;;;;5049144;28;20045;-73
2022/07/28 01:22:09;;;;;;;2.92;1.77;;;12.60;99.90;;;;;;5044532;28;20045;-72
2022/07/28 01:24:46;;;;;;;5.63;2.40;;;12.60;99.90;;;;;;5032315;28;20052;-73
2022/07/28 01:27:26;;;;;;;3.25;2.10;;;12.60;99.90;;;;;;5049109;28;20052;-72
2022/07/28 01:30:06;;;;;;;2.70;2.47;;;12.40;99.90;;;;;;5048930;28;20048;-73
2022/07/28 01:32:37;;;;;;;3.17;2.33;;;12.30;99.90;;;;;;5032312;28;20450;-73
2022/07/28 01:35:20;;;;;;;5.72;2.40;;;12.30;99.90;;;;;;5049058;28;20059;-72
2022/07/28 01:37:50;;;;;;;3.35;2.38;;;12.40;99.90;;;;;;5048833;28;20186;-72
2022/07/28 01:40:19;;;;;;;4.30;2.70;;;12.40;99.90;;;;;;5048793;28;20401;-72
2022/07/28 01:42:51;;;;;;;3.60;2.30;;;12.30;99.90;;;;;;5048704;28;20040;-71
2022/07/28 01:45:18;;;;;;;2.88;2.60;;;12.40;99.90;;;;;;5049088;28;20045;-71
2022/07/28 01:47:47;;;;;;;3.45;2.25;;;12.40;99.90;;;;;;5035221;28;20051;-71
2022/07/28 01:50:15;;;;;;;3.72;2.30;;;12.30;99.90;;;;;;5056986;28;20033;-71
2022/07/28 01:52:42;;;;;;;2.10;2.00;;;12.30;99.90;;;;;;5050290;28;20405;-71
2022/07/28 01:55:11;;;;;;;4.40;2.22;;;12.30;99.90;;;;;;5052253;28;20100;-71
2022/07/28 01:57:37;;;;;;;3.45;2.45;;;12.20;99.90;;;;;;5055419;28;20119;-71
2022/07/28 02:00:09;;;;;;;4.65;3.15;;;12.00;99.90;;;;;;5049262;28;20048;-71
2022/07/28 02:02:36;;;;;;;3.75;2.70;;;12.00;99.90;;;;;;5048829;28;20037;-71
2022/07/28 02:05:02;;;;;;;5.65;3.33;;;11.90;99.90;;;;;;5052793;28;20049;-71
2022/07/28 02:07:30;;;;;;;3.10;2.90;;;11.70;99.90;;;;;;5054285;28;20044;-71
2022/07/28 02:09:57;;;;;;;2.50;2.22;;;11.90;99.90;;;;;;5052563;28;20048;-70
2022/07/28 02:12:24;;;;;;;4.38;2.88;;;12.00;99.90;;;;;;5053658;28;20096;-71
2022/07/28 02:14:51;;;;;;;5.57;2.65;;;11.90;99.90;;;;;;5052553;28;20056;-71
2022/07/28 02:17:21;;;;;;;9.88;2.60;;;11.90;99.90;;;;;;5052433;28;20174;-71
2022/07/28 02:19:48;;;;;;;2.47;2.28;;;11.90;99.90;;;;;;5052355;28;20048;-71
2022/07/28 02:22:15;;;;;;;4.55;2.40;;;11.90;99.90;;;;;;5053498;28;20558;-71
2022/07/28 02:24:43;;;;;;;4.38;2.40;;;12.00;99.90;;;;;;5052044;28;20041;-71
2022/07/28 02:27:21;;;;;;;3.75;2.35;;;12.00;99.90;;;;;;5052244;28;20125;-71
2022/07/28 02:29:59;;;;;;;3.97;2.33;;;12.10;99.90;;;;;;5052502;28;20079;-72
2022/07/28 02:32:35;;;;;;;5.28;2.80;;;12.10;99.90;;;;;;5035439;28;20037;-71
2022/07/28 02:35:09;;;;;;;4.32;3.03;;;12.00;99.90;;;;;;5052126;28;20059;-72
2022/07/28 02:37:38;;;;;;;3.35;3.05;;;11.90;99.90;;;;;;5053607;28;20044;-71
2022/07/28 02:40:08;;;;;;;9.63;3.78;;;11.80;99.90;;;;;;5035442;28;20481;-71
2022/07/28 02:42:35;;;;;;;5.47;3.33;;;11.70;99.90;;;;;;5053318;28;20044;-71
2022/07/28 02:45:04;;;;;;;3.83;3.20;;;11.60;99.90;;;;;;5051912;28;20049;-72
2022/07/28 02:47:33;;;;;;;4.43;3.30;;;11.60;99.90;;;;;;5051857;28;20144;-72
2022/07/28 02:50:01;;;;;;;5.65;3.35;;;11.70;99.90;;;;;;5051816;28;20040;-72
2022/07/28 02:52:28;;;;;;;3.67;3.30;;;11.80;99.90;;;;;;5053010;28;20041;-72
2022/07/28 02:54:56;;;;;;;3.35;3.05;;;11.80;99.90;;;;;;5051707;28;20132;-71
2022/07/28 02:57:23;;;;;;;5.68;3.17;;;11.90;99.90;;;;;;5053007;28;20098;-72
2022/07/28 02:59:50;;;;;;;5.15;3.10;;;12.00;99.90;;;;;;5051975;28;20376;-71
2022/07/28 03:02:18;;;;;;;3.97;3.35;;;12.00;99.90;;;;;;5051746;28;20045;-72
2022/07/28 03:04:57;;;;;;;3.40;3.10;;;12.00;99.90;;;;;;5052824;28;20041;-72
2022/07/28 03:07:27;;;;;;;4.25;3.20;;;12.00;99.90;;;;;;5054175;28;20555;-72
2022/07/28 03:09:53;;;;;;;5.25;3.00;;;11.90;99.90;;;;;;5040985;28;20037;-72
2022/07/28 03:12:19;;;;;;;5.18;2.95;;;11.90;99.90;;;;;;5061705;28;20125;-72
2022/07/28 03:14:44;;;;;;;4.00;3.03;;;11.80;99.90;;;;;;5052777;28;20045;-72
2022/07/28 03:17:10;;;;;;;6.55;2.80;;;11.60;99.90;;;;;;5051856;28;20099;-72
2022/07/28 03:19:36;;;;;;;4.60;2.67;;;11.60;99.90;;;;;;5051745;28;20041;-72
2022/07/28 03:22:02;;;;;;;6.55;3.20;;;11.60;99.90;;;;;;5051298;28;20044;-72
2022/07/28 03:24:32;;;;;;;4.07;2.83;;;11.60;99.90;;;;;;5051174;28;20048;-72
2022/07/28 03:27:27;;;;;;;2.92;2.72;;;11.50;99.90;;;;;;5034940;28;20040;-72
2022/07/28 03:30:15;;;;;;;3.63;2.97;;;11.60;99.90;;;;;;5034758;28;20079;-72
2022/07/28 03:32:53;;;;;;;5.25;3.03;;;11.30;99.90;;;;;;5051348;28;20467;-72
2022/07/28 03:35:19;;;;;;;3.85;2.85;;;11.20;99.90;;;;;;5034827;28;20101;-72
2022/07/28 03:37:57;;;;;;;5.28;2.80;;;11.40;99.90;;;;;;5051297;28;20037;-72
2022/07/28 03:40:25;;;;;;;4.22;3.03;;;11.50;99.90;;;;;;5050299;28;20128;-72
2022/07/28 03:42:52;;;;;;;6.25;3.10;;;11.40;99.90;;;;;;5031368;28;20044;-72
2022/07/28 03:45:18;;;;;;;4.55;2.72;;;11.20;99.90;;;;;;5048053;28;20051;-72
2022/07/28 03:47:55;;;;;;;5.20;2.50;;;11.30;99.90;;;;;;5048249;28;20041;-73
2022/07/28 03:50:26;;;;;;;6.03;2.90;;;11.40;99.90;;;;;;5047851;28;20033;-72
2022/07/28 03:52:52;;;;;;;3.40;2.60;;;11.50;99.90;;;;;;5033206;28;20045;-72
2022/07/28 03:55:17;;;;;;;4.95;2.83;;;11.50;99.90;;;;;;5050762;28;20480;-73
2022/07/28 03:57:43;;;;;;;3.60;2.63;;;11.50;99.90;;;;;;5033816;28;20052;-72
2022/07/28 04:00:11;;;;;;;5.82;2.60;;;11.50;99.90;;;;;;5050263;28;20083;-72
2022/07/28 04:02:36;;;;;;;4.43;3.00;;;11.60;99.90;;;;;;5049740;28;20583;-72
2022/07/28 04:05:02;;;;;;;4.53;2.97;;;11.50;99.90;;;;;;5050113;28;20134;-72
2022/07/28 04:07:27;;;;;;;6.13;2.80;;;11.50;99.90;;;;;;5050768;28;20045;-72
2022/07/28 04:09:53;;;;;;;3.08;2.78;;;11.60;99.90;;;;;;5051435;28;20382;-72
2022/07/28 04:12:19;;;;;;;4.18;2.88;;;11.60;99.90;;;;;;5050841;28;20041;-73
2022/07/28 04:14:44;;;;;;;5.25;2.80;;;11.60;99.90;;;;;;5053319;28;20037;-72
2022/07/28 04:17:10;;;;;;;4.03;2.80;;;11.50;99.90;;;;;;5057208;28;20079;-73
2022/07/28 04:19:35;;;;;;;3.67;2.67;;;11.50;99.90;;;;;;5052210;28;20123;-72
2022/07/28 04:22:01;;;;;;;5.25;2.63;;;11.50;99.90;;;;;;5050226;28;20413;-73
2022/07/28 04:24:26;;;;;;;4.18;2.60;;;11.60;99.90;;;;;;5049938;28;20426;-72
2022/07/28 04:26:52;;;;;;;3.03;2.83;;;11.60;99.90;;;;;;5051458;28;20037;-72
2022/07/28 04:29:18;;;;;;;4.05;2.72;;;11.60;99.90;;;;;;5051895;28;20033;-73
2022/07/28 04:31:43;;;;;;;3.08;2.78;;;11.60;99.90;;;;;;5061754;28;20585;-72
2022/07/28 04:34:09;;;;;;;4.75;2.60;;;11.60;99.90;;;;;;5062071;28;20524;-72
2022/07/28 04:36:40;;;;;;;2.78;2.58;;;11.60;99.90;;;;;;5051818;28;20044;-72
2022/07/28 04:39:07;;;;;;;6.93;3.03;;;11.70;99.90;;;;;;5050102;28;20076;-72
2022/07/28 04:41:33;;;;;;;4.60;2.80;;;11.80;99.90;;;;;;5051241;28;20501;-72
2022/07/28 04:43:59;;;;;;;3.72;2.67;;;11.80;99.90;;;;;;5049604;28;20528;-71
2022/07/28 04:46:25;;;;;;;5.65;3.08;;;11.80;99.90;;;;;;5050081;28;20084;-71
2022/07/28 04:48:50;;;;;;;3.72;2.95;;;11.80;99.90;;;;;;5049305;28;20041;-72
2022/07/28 04:51:16;;;;;;;4.68;2.85;;;12.00;99.90;;;;;;5049856;28;20045;-72
2022/07/28 04:53:42;;;;;;;4.43;3.05;;;12.10;99.90;;;;;;5049746;28;20041;-72
2022/07/28 04:56:07;;;;;;;5.90;3.10;;;12.10;99.90;;;;;;5049764;28;20489;-73
2022/07/28 04:58:33;;;;;;;3.25;2.95;;;12.10;99.90;;;;;;5049630;28;20148;-72
2022/07/28 05:00:59;;;;;;;3.83;2.85;;;12.10;99.90;;;;;;5049577;28;20079;-72
2022/07/28 05:03:24;;;;;;;3.75;2.60;;;12.20;99.90;;;;;;5032777;28;20036;-72
2022/07/28 05:05:50;;;;;;;5.97;3.25;;;12.40;99.90;;;;;;5049619;28;20098;-73
2022/07/28 05:08:16;;;;;;;7.57;3.05;;;12.50;99.90;;;;;;5049613;28;20044;-73
2022/07/28 05:10:41;;;;;;;4.13;3.20;;;12.40;99.90;;;;;;5049399;28;20045;-73
2022/07/28 05:13:07;;;;;;;3.45;3.15;;;12.20;99.90;;;;;;5049268;28;20045;-72
2022/07/28 05:15:33;;;;;;;6.40;3.25;;;12.10;99.90;;;;;;5049376;28;20041;-73
2022/07/28 05:17:59;;;;;;;5.30;3.33;;;12.20;99.90;;;;;;5049259;28;20045;-72
2022/07/28 05:20:25;;;;;;;6.18;3.13;;;12.40;99.90;;;;;;5050501;28;20044;-72
2022/07/28 05:22:52;;;;;;;3.72;3.22;;;12.40;99.90;;;;;;5050494;28;20446;-72
2022/07/28 05:25:20;;;;;;;7.82;3.20;;;12.60;99.90;;;;;;5058434;28;20053;-72
2022/07/28 05:27:47;;;;;;;6.18;3.10;;;12.70;99.90;;;;;;5063720;28;20144;-73
2022/07/28 05:30:14;;;;;;;5.82;3.10;;;12.80;99.90;;;;;;5050786;28;20041;-73
2022/07/28 05:32:40;;;;;;;4.43;3.30;;;12.90;99.90;;;;;;5048946;28;20040;-73
2022/07/28 05:35:06;;;;;;;8.93;4.22;;;13.10;99.90;;;;;;5049039;28;20060;-73
2022/07/28 05:37:36;;;;;;;6.40;3.92;;;13.20;99.90;;;;;;5048549;28;20040;-73
2022/07/28 05:40:03;;;;;;;7.00;3.90;;;13.30;99.90;;;;;;5048924;28;20049;-72
2022/07/28 05:42:34;;;;;;;5.93;3.72;;;13.50;99.90;;;;;;5048796;28;20044;-73
2022/07/28 05:45:02;;;;;;;8.57;3.55;;;13.70;99.90;;;;;;5049138;28;20409;-72
2022/07/28 05:47:28;;;;;;;7.75;3.35;;;13.70;99.90;;;;;;5049841;28;20049;-73
2022/07/28 05:49:58;;;;;;;4.10;3.55;;;13.70;99.90;;;;;;5060601;28;20102;-72
2022/07/28 05:52:25;;;;;;;8.63;3.50;;;14.00;99.90;;;;;;5057603;28;20032;-73
2022/07/28 05:54:51;;;;;;;4.50;3.55;;;14.00;99.90;;;;;;5059969;28;20073;-73
2022/07/28 05:57:16;;;;;;;6.57;3.95;;;14.10;99.90;;;;;;5050178;28;20084;-73
2022/07/28 05:59:42;;;;;;;8.60;3.97;;;14.20;99.90;;;;;;5048901;28;20047;-73
2022/07/28 06:02:09;;;;;;;5.57;3.22;;;14.50;99.90;;;;;;5048721;28;20497;-73
2022/07/28 06:04:35;;;;;;;10.25;3.55;;;14.50;99.90;;;;;;5031871;28;20041;-73
2022/07/28 06:07:01;;;;;;;6.00;2.85;;;14.60;99.90;;;;;;5048862;28;20106;-73
2022/07/28 06:09:26;;;;;;;5.35;3.22;;;14.70;99.90;;;;;;5048724;28;20083;-73
2022/07/28 06:11:52;;;;;;;13.32;3.47;;;14.70;99.90;;;;;;5048733;28;20037;-73
2022/07/28 06:14:17;;;;;;;6.93;3.20;;;14.80;99.90;;;;;;5048250;28;20412;-73
2022/07/28 06:16:43;;;;;;;6.72;2.58;;;14.90;99.90;;;;;;5048471;28;20037;-73
2022/07/28 06:19:09;;;;;;;6.07;2.63;;;14.90;99.90;;;;;;5048873;28;20495;-73
2022/07/28 06:21:35;;;;;;;10.90;2.60;;;15.00;99.90;;;;;;5048376;28;20049;-72
2022/07/28 06:24:01;;;;;;;8.07;3.30;;;15.10;99.90;;;;;;5048015;28;20387;-72
2022/07/28 06:26:26;;;;;;;5.40;2.83;;;15.00;99.90;;;;;;5048485;28;20041;-71
2022/07/28 06:28:52;;;;;;;4.65;2.15;;;15.10;99.90;;;;;;5048922;28;20489;-72
2022/07/28 06:31:17;;;;;;;4.18;2.10;;;15.30;99.90;;;;;;5049385;28;20033;-71
2022/07/28 06:33:43;;;;;;;6.38;2.22;;;15.40;99.90;;;;;;5048909;28;20048;-70
2022/07/28 06:36:08;;;;;;;7.47;2.35;;;15.50;99.90;;;;;;5049835;28;20037;-71
2022/07/28 06:38:34;;;;;;;5.43;1.92;;;15.70;99.90;;;;;;5056782;28;20110;-71
2022/07/28 06:41:00;;;;;;;6.22;2.28;;;15.80;99.90;;;;;;5049212;28;20067;-71
2022/07/28 06:43:28;;;;;;;4.97;2.08;;;15.90;99.90;;;;;;5054871;28;20041;-71
2022/07/28 06:45:53;;;;;;;6.40;1.92;;;15.90;99.90;;;;;;5041024;28;20140;-71
2022/07/28 06:48:19;;;;;;;6.85;2.08;;;15.90;99.90;;;;;;5047803;28;20080;-71
2022/07/28 06:50:44;;;;;;;4.60;1.85;;;16.00;99.90;;;;;;5051868;28;20037;-72
2022/07/28 06:53:10;;;;;;;6.35;2.22;;;15.90;99.90;;;;;;5052220;28;20033;-72
2022/07/28 06:55:36;;;;;;;4.75;1.85;;;15.90;99.90;;;;;;5053447;28;20079;-72
2022/07/28 06:58:03;;;;;;;7.72;1.80;;;15.90;99.90;;;;;;5052244;28;20083;-71
2022/07/28 07:00:32;;;;;;;6.18;1.85;;;16.00;99.90;;;;;;5052008;28;20041;-72
2022/07/28 07:02:57;;;;;;;5.30;1.88;;;16.00;99.90;;;;;;5051898;28;20048;-72
2022/07/28 07:05:24;;;;;;;6.60;1.60;;;16.00;99.90;;;;;;5052009;28;20455;-72
2022/07/28 07:07:50;;;;;;;6.30;2.30;;;16.10;99.90;;;;;;5053636;28;20060;-72
2022/07/28 07:10:16;;;;;;;5.38;2.03;;;16.10;99.90;;;;;;5036045;28;20037;-72
2022/07/28 07:12:41;;;;;;;6.25;2.00;;;16.10;99.90;;;;;;5059207;28;20060;-72
2022/07/28 07:15:07;;;;;;;5.00;1.63;;;16.20;99.90;;;;;;5069398;28;20048;-73
2022/07/28 07:17:33;;;;;;;4.55;1.65;;;16.20;99.90;;;;;;5058065;28;20125;-72
2022/07/28 07:19:59;;;;;;;4.57;1.83;;;16.20;99.90;;;;;;5051408;28;20045;-71
2022/07/28 07:22:24;;;;;;;4.85;1.70;;;16.30;99.90;;;;;;5034815;28;20041;-72
2022/07/28 07:24:50;;;;;;;7.47;1.60;;;16.40;99.90;;;;;;5051526;28;20413;-72
2022/07/28 07:27:15;;;;;;;3.33;2.00;;;16.50;99.90;;;;;;5051538;28;20040;-72
2022/07/28 07:29:41;;;;;;;3.58;1.98;;;16.40;99.90;;;;;;5051185;28;20072;-71
2022/07/28 07:32:07;;;;;;;2.53;1.73;;;16.50;99.90;;;;;;5052787;28;20501;-71
2022/07/28 07:34:32;;;;;;;4.15;1.90;;;16.60;99.90;;;;;;5050772;28;20384;-71
2022/07/28 07:36:58;;;;;;;3.30;1.55;;;16.70;99.90;;;;;;5034824;28;20106;-72
2022/07/28 07:39:23;;;;;;;4.88;1.70;;;16.80;99.90;;;;;;5051191;28;20036;-72
2022/07/28 07:41:49;;;;;;;5.68;2.40;;;16.80;99.90;;;;;;5051981;28;20589;-72
2022/07/28 07:44:14;;;;;;;6.97;2.00;;;16.90;99.90;;;;;;5055960;28;20044;-72
2022/07/28 07:46:40;;;;;;;4.95;1.63;;;16.90;99.90;;;;;;5069567;28;20056;-72
2022/07/28 07:49:05;;;;;;;3.05;1.33;;;17.00;99.90;;;;;;5057944;28;20509;-73
2022/07/28 07:51:31;;;;;;;6.30;1.70;;;17.10;99.90;;;;;;5051046;28;20044;-72
2022/07/28 07:53:57;;;;;;;6.60;1.55;;;17.20;99.90;;;;;;5050819;28;20049;-72
2022/07/28 07:56:22;;;;;;;3.67;1.20;;;17.30;99.90;;;;;;5051583;28;20045;-72
2022/07/28 07:58:50;;;;;;;3.33;1.20;;;17.10;99.90;;;;;;5034462;28;20241;-72
2022/07/28 08:01:15;;;;;;;4.45;1.20;;;17.10;99.90;;;;;;5033397;28;20059;-72
2022/07/28 08:03:42;;;;;;;2.55;1.45;;;17.20;99.90;;;;;;5050532;28;20041;-72
2022/07/28 08:06:08;;;;;;;4.25;1.30;;;17.20;99.90;;;;;;5050797;28;20098;-72
2022/07/28 08:08:33;;;;;;;3.65;1.20;;;17.30;99.90;;;;;;5050654;28;20040;-71
2022/07/28 08:10:59;;;;;;;4.70;1.15;;;17.20;99.90;;;;;;5050889;28;20485;-73
2022/07/28 08:13:24;;;;;;;2.45;1.10;;;17.30;99.90;;;;;;5033974;28;20048;-72
2022/07/28 08:15:50;;;;;;;6.03;1.10;;;17.30;99.90;;;;;;5050536;28;20043;-72
2022/07/28 08:18:16;;;;;;;7.20;1.58;;;17.30;99.90;;;;;;5050485;28;20044;-72
2022/07/28 08:20:41;;;;;;;3.50;1.40;;;17.40;99.90;;;;;;5033747;28;20051;-72
2022/07/28 08:23:07;;;;;;;5.53;1.85;;;17.40;99.90;;;;;;5056287;28;20037;-72
2022/07/28 08:25:35;;;;;;;3.63;1.25;;;17.50;99.90;;;;;;5057646;28;20110;-73
2022/07/28 08:28:01;;;;;;;3.30;1.45;;;17.60;99.90;;;;;;5058468;28;20075;-72
2022/07/28 08:30:26;;;;;;;2.70;1.10;;;17.60;99.90;;;;;;5050427;28;20068;-73
2022/07/28 08:32:52;;;;;;;4.82;1.27;;;17.50;99.90;;;;;;5056891;28;20115;-72
2022/07/28 08:35:18;;;;;;;3.80;1.38;;;17.50;99.90;;;;;;5064934;28;20091;-73
2022/07/28 08:37:43;;;;;;;5.95;1.40;;;17.70;99.90;;;;;;5053430;28;20079;-70
2022/07/28 08:40:15;;;;;;;1.90;1.13;;;17.70;99.90;;;;;;5033911;28;20045;-72
2022/07/28 08:42:49;;;;;;;5.03;1.35;;;17.80;99.90;;;;;;5049825;28;20041;-72
2022/07/28 08:45:16;;;;;;;4.43;1.50;;;18.00;99.90;;;;;;5049763;28;20037;-72
2022/07/28 08:47:42;;;;;;;6.35;1.35;;;18.10;99.90;;;;;;5033315;28;20045;-72
2022/07/28 08:50:11;;;;;;;4.65;1.20;;;18.20;99.90;;;;;;5056428;28;20044;-72
2022/07/28 08:52:38;;;;;;;2.83;1.70;;;18.20;99.90;;;;;;5059571;28;20045;-72
2022/07/28 08:55:06;;;;;;;3.90;1.10;;;18.10;99.90;;;;;;5059356;28;20048;-72
2022/07/28 08:57:36;;;;;;;2.60;1.30;;;17.90;99.90;;;;;;5057094;28;20049;-72
2022/07/28 09:00:03;;;;;;;3.88;1.35;;;17.80;99.90;;;;;;5050947;28;20047;-72
2022/07/28 09:02:31;;;;;;;8.13;1.55;;;17.70;99.90;;;;;;5049099;28;20045;-71
2022/07/28 09:04:58;;;;;;;2.72;1.60;;;17.70;99.90;;;;;;5049556;28;20057;-71
2022/07/28 09:07:25;;;;;;;2.05;1.50;;;17.70;99.90;;;;;;5049288;28;20037;-72
2022/07/28 09:09:53;;;;;;;2.67;1.20;;;17.70;99.90;;;;;;5059250;28;20068;-71
2022/07/28 09:12:19;;;;;;;2.35;1.10;;;17.80;99.90;;;;;;5058721;28;20395;-72
2022/07/28 09:14:44;;;;;;;5.68;1.33;;;17.90;99.90;;;;;;5059193;28;20135;-72
2022/07/28 09:17:10;;;;;;;9.05;1.38;;;17.90;99.90;;;;;;5059496;28;20499;-72
2022/07/28 09:19:38;;;;;;;1.42;1.20;;;17.80;99.90;;;;;;5058678;28;20067;-70
2022/07/28 09:22:05;;;;;;;4.50;1.20;;;18.10;99.90;;;;;;5057420;28;20083;-73
2022/07/28 09:24:38;;;;;;;1.05;0.93;;;18.20;99.90;;;;;;5059224;28;20166;-72
2022/07/28 09:27:07;;;;;;;2.38;1.20;;;18.30;99.90;;;;;;5059790;28;20519;-73
2022/07/28 09:29:34;;;;;;;3.47;1.30;;;18.30;99.90;;;;;;5058186;28;20076;-73
2022/07/28 09:31:59;;;;;;;1.45;1.35;;;18.50;99.90;;;;;;5058212;28;20033;-72
2022/07/28 09:34:25;;;;;;;4.40;1.35;;;18.40;99.90;;;;;;5051033;28;20051;-72
2022/07/28 09:36:51;;;;;;;2.58;1.20;;;18.60;99.90;;;;;;5048787;28;20477;-72
2022/07/28 09:39:34;;;;;;;3.33;1.30;;;18.60;99.90;;;;;;5048803;28;20393;-71
2022/07/28 09:42:00;;;;;;;4.95;1.05;;;18.70;99.90;;;;;;5048432;28;20056;-73
2022/07/28 09:44:27;;;;;;;4.15;1.02;;;18.80;99.90;;;;;;5048416;28;20449;-73
2022/07/28 09:46:54;;;;;;;2.85;1.17;;;18.70;99.90;;;;;;5048593;28;20045;-73
2022/07/28 09:49:20;;;;;;;2.95;1.10;;;18.60;99.90;;;;;;5050520;28;20454;-73
2022/07/28 09:52:00;;;;;;;1.38;1.08;;;18.80;99.90;;;;;;5052483;28;20094;-72
2022/07/28 09:54:26;;;;;;;4.45;1.40;;;18.90;99.90;;;;;;5052683;28;20048;-70
2022/07/28 09:56:51;;;;;;;1.63;1.10;;;18.90;99.90;;;;;;5048575;28;20041;-72
2022/07/28 09:59:17;;;;;;;2.65;1.40;;;18.70;99.90;;;;;;5048672;28;20131;-72
2022/07/28 10:01:54;;;;;;;4.35;1.27;;;18.80;99.90;;;;;;5050503;28;20128;-73
2022/07/28 10:04:30;;;;;;;3.45;1.17;;;18.90;99.90;;;;;;5062227;28;20049;-73
2022/07/28 10:07:04;;;;;;;2.90;1.10;;;19.00;99.80;;;;;;5051862;28;20547;-72
2022/07/28 10:09:30;;;;;;;1.67;1.20;;;19.00;99.60;;;;;;5049069;28;20048;-72
2022/07/28 10:12:13;;;;;;;2.70;0.90;;;18.90;98.80;;;;;;5050188;28;20033;-72
2022/07/28 10:14:39;;;;;;;5.18;1.13;;;18.90;99.60;;;;;;5048718;28;20041;-72
2022/07/28 10:17:05;;;;;;;3.47;1.10;;;19.00;99.10;;;;;;5031311;28;20325;-70
2022/07/28 10:19:30;;;;;;;1.92;0.90;;;19.00;99.50;;;;;;5048575;28;20405;-71
2022/07/28 10:21:57;;;;;;;3.15;1.20;;;19.00;99.80;;;;;;5048508;28;20077;-72
2022/07/28 10:24:26;;;;;;;2.15;1.00;;;18.90;99.90;;;;;;5049367;28;20527;-71
2022/07/28 10:26:55;;;;;;;3.97;1.30;;;18.90;99.90;;;;;;5052759;28;20043;-71
2022/07/28 10:29:21;;;;;;;2.08;1.10;;;19.00;99.80;;;;;;5052509;28;20037;-71
2022/07/28 10:31:56;;;;;;;3.63;1.13;;;19.10;99.70;;;;;;5050538;28;20048;-72
2022/07/28 10:34:27;;;;;;;5.32;1.02;;;19.10;99.90;;;;;;5051725;28;20503;-71
2022/07/28 10:37:03;;;;;;;2.83;1.13;;;19.20;99.90;;;;;;5036293;28;20037;-74
2022/07/28 10:39:39;;;;;;;1.45;1.10;;;19.20;99.40;;;;;;5052816;28;20378;-71
2022/07/28 10:42:09;;;;;;;7.20;1.30;;;19.10;99.50;;;;;;5052166;28;20048;-71
2022/07/28 10:44:36;;;;;;;4.40;1.10;;;19.10;99.90;;;;;;5052034;28;20041;-71
2022/07/28 10:47:07;;;;;;;5.10;1.40;;;19.20;99.80;;;;;;5035360;28;20135;-71
2022/07/28 10:49:34;;;;;;;2.38;0.90;;;19.10;99.90;;;;;;5052181;28;20041;-71
2022/07/28 10:52:01;;;;;;;4.18;1.38;;;19.00;99.30;;;;;;5041867;28;20390;-71
2022/07/28 10:54:29;;;;;;;3.38;1.20;;;19.10;98.90;;;;;;5071823;28;20083;-71
2022/07/28 10:56:56;;;;;;;3.72;1.10;;;19.10;99.00;;;;;;5072198;28;20443;-71
2022/07/28 10:59:37;;;;;;;1.73;0.95;;;19.10;99.20;;;;;;5071778;28;20055;-71
2022/07/28 11:02:03;;;;;;;4.68;1.30;;;19.10;99.20;;;;;;5071857;28;20508;-72
2022/07/28 11:04:45;;;;;;;6.20;1.30;;;19.20;98.90;;;;;;5071655;28;20044;-72
2022/07/28 11:07:13;;;;;;;5.82;1.30;;;19.10;99.30;;;;;;5072097;28;20532;-72
2022/07/28 11:09:39;;;;;;;4.50;1.08;;;19.20;99.60;;;;;;5071812;28;20040;-72
2022/07/28 11:12:05;;;;;;;3.70;1.08;;;19.30;99.90;;;;;;5056159;28;20064;-72
2022/07/28 11:14:33;;;;;;;2.35;0.98;;;19.30;99.40;;;;;;5057351;28;20079;-72
2022/07/28 11:17:02;;;;;;;2.45;1.10;;;19.30;99.50;;;;;;5075373;28;20072;-72
2022/07/28 11:19:28;;;;;;;1.70;0.98;;;19.30;99.20;;;;;;5073014;28;20079;-72
2022/07/28 11:22:13;;;;;;;2.35;1.20;;;19.40;99.00;;;;;;5071386;28;20075;-72
2022/07/28 11:25:00;;;;;;;5.35;1.40;;;19.40;98.40;;;;;;5071112;28;20094;-72
2022/07/28 11:27:41;;;;;;;3.33;1.23;;;19.40;98.30;;;;;;5071126;28;20083;-72
2022/07/28 11:30:08;;;;;;;2.63;1.10;;;19.50;98.70;;;;;;5071462;28;20047;-72
2022/07/28 11:32:48;;;;;;;3.15;1.33;;;19.50;98.50;;;;;;5054261;28;20492;-71
2022/07/28 11:35:15;;;;;;;4.95;1.50;;;19.60;98.60;;;;;;5070742;28;20443;-72
2022/07/28 11:37:59;;;;;;;1.23;1.13;;;19.60;98.60;;;;;;5070668;28;20119;-71
2022/07/28 11:40:29;;;;;;;4.40;1.10;;;19.80;99.00;;;;;;5071223;28;20044;-71
2022/07/28 11:43:25;;;;;;;2.97;1.40;;;19.70;98.10;;;;;;5071158;28;20044;-72
2022/07/28 11:46:00;;;;;;;3.80;1.17;;;19.80;97.70;;;;;;5071374;28;20044;-71
2022/07/28 11:48:27;;;;;;;3.13;1.15;;;19.90;98.20;;;;;;5069056;28;20040;-72
2022/07/28 11:51:02;;;;;;;18.58;1.35;;;19.90;98.20;;;;;;5070833;28;20036;-71
2022/07/28 11:53:38;;;;;;;5.32;1.20;;;19.90;97.70;;;;;;5071899;28;20040;-71
2022/07/28 11:56:06;;;;;;;5.32;1.20;;;19.90;97.70;;;;;;5070966;28;20182;-71
2022/07/28 11:58:31;;;;;;;4.82;1.48;;;20.00;98.00;;;;;;5053812;28;20040;-71
2022/07/28 12:01:13;;;;;;;3.65;1.48;;;19.90;98.30;;;;;;5070770;28;20120;-72
2022/07/28 12:03:41;;;;;;;4.47;1.13;;;20.10;97.90;;;;;;5070475;28;20076;-71
2022/07/28 12:06:10;;;;;;;1.92;0.90;;;20.00;97.40;;;;;;5054115;28;20049;-71
2022/07/28 12:09:07;;;;;;;4.80;1.05;;;19.90;97.30;;;;;;5071008;28;20423;-71
2022/07/28 12:11:41;;;;;;;1.55;1.10;;;19.90;97.70;;;;;;5071019;28;20071;-71
2022/07/28 12:14:11;;;;;;;3.90;1.23;;;19.80;97.10;;;;;;5071719;28;20121;-72
2022/07/28 12:16:42;;;;;;;7.50;1.33;;;19.80;97.10;;;;;;5070674;28;20052;-71
2022/07/28 12:19:09;;;;;;;2.83;1.20;;;19.90;98.00;;;;;;5072493;28;20098;-71
2022/07/28 12:21:41;;;;;;;3.15;1.23;;;20.00;97.60;;;;;;5081320;28;20384;-71
2022/07/28 12:24:12;;;;;;;3.85;1.30;;;20.10;97.60;;;;;;5077226;28;20396;-71
2022/07/28 12:26:39;;;;;;;3.15;1.05;;;19.90;96.90;;;;;;5071543;28;20040;-72
2022/07/28 12:29:06;;;;;;;4.10;1.40;;;19.90;97.50;;;;;;5071259;28;20469;-71
2022/07/28 12:31:32;;;;;;;3.17;1.27;;;20.00;97.70;;;;;;5071157;28;20044;-72
2022/07/28 12:33:59;;;;;;;4.53;1.30;;;20.10;97.90;;;;;;5070241;28;20036;-72
2022/07/28 12:36:26;;;;;;;1.58;1.10;;;20.30;97.60;;;;;;5053663;28;20048;-72
2022/07/28 12:38:52;;;;;;;9.60;1.40;;;20.20;97.70;;;;;;5071746;28;20469;-71
2022/07/28 12:41:18;;;;;;;4.13;1.13;;;20.40;97.90;;;;;;5056403;28;20072;-71
2022/07/28 12:43:52;;;;;;;2.83;1.10;;;20.50;97.90;;;;;;5050032;28;20049;-71
2022/07/28 12:46:23;;;;;;;2.20;1.08;;;20.40;97.40;;;;;;5050000;28;20033;-72
2022/07/28 12:48:49;;;;;;;3.00;1.13;;;20.30;97.70;;;;;;5051151;28;20029;-71
2022/07/28 12:51:34;;;;;;;11.68;1.48;;;20.20;97.70;;;;;;5033224;28;20041;-71
2022/07/28 12:54:04;;;;;;;5.38;1.00;;;20.30;97.70;;;;;;5033171;28;20215;-72